createdAt,value
2023-04-21T00:00:10.337Z,8.30
2023-04-21T00:05:02.295Z,9.38
2023-04-21T00:09:54.070Z,8.88
2023-04-21T00:14:45.717Z,6.53
2023-04-21T00:19:37.316Z,5.40
2023-04-21T00:24:29.030Z,4.72
2023-04-21T00:29:20.760Z,4.80
2023-04-21T00:34:12.465Z,5.47
2023-04-21T00:39:04.110Z,4.80
2023-04-21T00:44:07.281Z,4.75
2023-04-21T00:48:59.144Z,5.25
2023-04-21T00:53:51.654Z,4.65
2023-04-21T00:58:45.682Z,4.95
2023-04-21T01:03:37.603Z,4.95
2023-04-21T01:08:29.352Z,4.85
2023-04-21T01:13:23.835Z,3.92
2023-04-21T01:18:17.106Z,4.95
2023-04-21T01:23:08.691Z,5.00
2023-04-21T01:28:00.327Z,5.47
2023-04-21T01:32:52.247Z,5.32
2023-04-21T01:37:43.892Z,5.43
2023-04-21T01:42:39.435Z,4.25
2023-04-21T01:47:31.041Z,5.45
2023-04-21T01:52:22.698Z,5.47
2023-04-21T01:57:14.621Z,6.00
2023-04-21T02:02:06.797Z,5.45
2023-04-21T02:06:58.473Z,4.80
2023-04-21T02:11:50.200Z,6.03
2023-04-21T02:16:41.879Z,6.03
2023-04-21T02:21:33.742Z,5.72
2023-04-21T02:26:25.699Z,5.10
2023-04-21T02:31:18.937Z,4.53
2023-04-21T02:36:10.729Z,5.60
2023-04-21T02:41:02.337Z,5.90
2023-04-21T02:45:53.910Z,5.10
2023-04-21T02:50:45.496Z,5.10
2023-04-21T02:55:37.142Z,5.22
2023-04-21T03:00:28.734Z,6.32
2023-04-21T03:05:21.180Z,5.18
2023-04-21T03:10:12.834Z,5.25
2023-04-21T03:15:04.932Z,4.47
2023-04-21T03:19:56.562Z,4.30
2023-04-21T03:24:48.099Z,4.93
2023-04-21T03:29:39.725Z,4.63
2023-04-21T03:34:31.303Z,5.18
2023-04-21T03:39:23.114Z,6.00
2023-04-21T03:44:15.087Z,5.47
2023-04-21T03:49:06.721Z,5.40
2023-04-21T03:53:59.259Z,5.57
2023-04-21T03:58:50.867Z,5.10
2023-04-21T04:03:42.660Z,5.30
2023-04-21T04:08:34.447Z,5.85
2023-04-21T04:13:26.685Z,5.22
2023-04-21T04:18:18.269Z,4.63
2023-04-21T04:23:09.907Z,4.80
2023-04-21T04:28:01.491Z,4.35
2023-04-21T04:32:53.081Z,4.03
2023-04-21T04:37:45.599Z,4.15
2023-04-21T04:42:37.354Z,4.07
2023-04-21T04:47:29.670Z,3.72
2023-04-21T04:52:21.444Z,3.92
2023-04-21T04:57:13.188Z,3.83
2023-04-21T05:02:04.853Z,4.07
2023-04-21T05:06:56.536Z,3.03
2023-04-21T05:11:48.161Z,3.40
2023-04-21T05:16:39.992Z,3.55
2023-04-21T05:21:31.752Z,3.67
2023-04-21T05:26:24.325Z,3.42
2023-04-21T05:31:15.990Z,2.85
2023-04-21T05:36:09.437Z,3.80
2023-04-21T05:41:00.996Z,3.38
2023-04-21T05:45:52.934Z,3.15
2023-04-21T05:50:44.808Z,3.17
2023-04-21T05:55:37.351Z,3.53
2023-04-21T06:00:28.987Z,3.85
2023-04-21T06:05:20.811Z,3.42
2023-04-21T06:10:14.074Z,3.95
2023-04-21T06:15:06.382Z,3.65
2023-04-21T06:19:58.171Z,3.95
2023-04-21T06:24:49.844Z,4.68
2023-04-21T06:29:42.866Z,5.07
2023-04-21T06:34:34.590Z,5.82
2023-04-21T06:39:26.766Z,5.18
2023-04-21T06:44:19.228Z,5.82
2023-04-21T06:49:11.164Z,5.93
2023-04-21T06:54:03.116Z,7.47
2023-04-21T06:58:55.047Z,8.20
2023-04-21T07:03:46.917Z,7.82
2023-04-21T07:08:39.162Z,9.27
2023-04-21T07:13:30.738Z,8.23
2023-04-21T07:18:22.307Z,8.95
2023-04-21T07:23:13.986Z,8.15
2023-04-21T07:28:05.878Z,9.65
2023-04-21T07:32:57.707Z,9.23
2023-04-21T07:37:49.561Z,8.88
2023-04-21T07:42:41.335Z,8.90
2023-04-21T07:47:33.412Z,10.13
2023-04-21T07:52:25.045Z,9.82
2023-04-21T07:57:16.807Z,10.50
2023-04-21T08:02:08.683Z,10.90
2023-04-21T08:07:00.558Z,12.15
2023-04-21T08:11:52.279Z,12.35
2023-04-21T08:16:44.133Z,12.07
2023-04-21T08:21:36.488Z,11.35
2023-04-21T08:26:30.186Z,11.18
2023-04-21T08:31:22.017Z,10.60
2023-04-21T08:36:26.112Z,9.45
2023-04-21T08:41:20.787Z,9.32
2023-04-21T08:46:12.631Z,9.70
2023-04-21T08:51:06.810Z,10.50
2023-04-21T08:56:09.955Z,9.98
2023-04-21T09:01:02.747Z,11.60
2023-04-21T09:06:05.722Z,11.20
2023-04-21T09:10:58.767Z,10.45
2023-04-21T09:15:54.417Z,10.13
2023-04-21T09:20:48.086Z,9.57
2023-04-21T09:25:41.380Z,10.40
2023-04-21T09:30:36.364Z,9.20
2023-04-21T09:35:29.237Z,8.32
2023-04-21T09:40:20.937Z,9.27
2023-04-21T09:50:12.689Z,7.55
2023-04-21T09:55:12.025Z,8.70
2023-04-21T10:00:13.807Z,7.68
2023-04-21T10:05:07.287Z,7.75
2023-04-21T10:10:01.043Z,6.63
2023-04-21T10:14:53.721Z,5.65
2023-04-21T10:19:51.169Z,5.50
2023-04-21T10:24:43.326Z,6.30
2023-04-21T10:34:30.427Z,5.75
2023-04-21T10:39:31.418Z,4.65
2023-04-21T10:44:23.105Z,4.18
2023-04-21T10:49:25.652Z,4.45
2023-04-21T10:54:17.418Z,4.45
2023-04-21T10:59:09.123Z,4.65
2023-04-21T11:04:01.419Z,4.70
2023-04-21T11:08:59.568Z,4.38
2023-04-21T11:13:53.044Z,3.65
2023-04-21T11:18:45.312Z,3.75
2023-04-21T11:23:41.360Z,3.70
2023-04-21T11:28:32.928Z,4.15
2023-04-21T11:33:24.753Z,3.47
2023-04-21T11:38:18.687Z,4.57
2023-04-21T11:43:10.352Z,4.75
2023-04-21T11:48:18.022Z,5.13
2023-04-21T11:53:09.747Z,4.20
2023-04-21T11:58:03.469Z,5.00
2023-04-21T12:02:57.009Z,4.95
2023-04-21T12:07:49.057Z,5.13
2023-04-21T12:12:42.241Z,4.10
2023-04-21T12:17:40.355Z,4.47
2023-04-21T12:27:23.572Z,4.55
2023-04-21T12:32:15.933Z,2.67
2023-04-21T12:37:07.860Z,3.08
2023-04-21T12:41:59.784Z,2.13
2023-04-21T12:46:52.340Z,2.17
2023-04-21T12:51:44.595Z,1.92
2023-04-21T12:56:36.632Z,2.00
2023-04-21T13:01:28.245Z,1.60
2023-04-21T13:06:20.139Z,1.88
2023-04-21T13:11:11.738Z,1.98
2023-04-21T13:16:03.658Z,1.58
2023-04-21T13:20:55.287Z,1.58
2023-04-21T13:25:47.270Z,1.73
2023-04-21T13:30:38.895Z,1.85
2023-04-21T13:35:30.641Z,1.67
2023-04-21T13:40:22.229Z,2.15
2023-04-21T13:45:13.915Z,2.17
2023-04-21T13:50:06.246Z,2.75
2023-04-21T13:54:57.791Z,2.22
2023-04-21T13:59:50.105Z,1.65
2023-04-21T14:04:42.221Z,2.15
2023-04-21T14:09:34.842Z,2.20
2023-04-21T14:14:37.876Z,3.13
2023-04-21T14:19:32.477Z,2.97
2023-04-21T14:24:26.920Z,1.50
2023-04-21T14:29:18.518Z,1.67
2023-04-21T14:34:10.052Z,1.67
2023-04-21T14:39:01.697Z,2.50
2023-04-21T14:43:56.221Z,2.08
2023-04-21T14:48:47.919Z,2.75
2023-04-21T14:53:40.744Z,2.25
2023-04-21T14:58:32.555Z,2.50
2023-04-21T15:03:24.298Z,2.85
2023-04-21T15:08:18.323Z,3.05
2023-04-21T15:13:11.661Z,3.20
2023-04-21T15:18:03.355Z,2.90
2023-04-21T15:22:55.050Z,3.28
2023-04-21T15:27:46.804Z,3.33
2023-04-21T15:32:38.545Z,3.85
2023-04-21T15:37:30.235Z,3.88
2023-04-21T15:42:21.881Z,3.53
2023-04-21T15:47:15.190Z,3.30
2023-04-21T15:52:07.188Z,3.85
2023-04-21T15:56:58.834Z,3.33
2023-04-21T16:01:50.503Z,2.88
2023-04-21T16:06:42.203Z,2.70
2023-04-21T16:11:34.505Z,2.78
2023-04-21T16:16:26.171Z,3.05
2023-04-21T16:21:18.010Z,3.88
2023-04-21T16:26:09.837Z,2.85
2023-04-21T16:31:01.595Z,2.58
2023-04-21T16:35:54.233Z,2.88
2023-04-21T16:40:47.153Z,3.25
2023-04-21T16:45:38.896Z,3.28
2023-04-21T16:50:30.873Z,11.90
2023-04-21T16:55:22.453Z,5.88
2023-04-21T17:00:14.772Z,5.32
2023-04-21T17:05:06.524Z,7.18
2023-04-21T17:09:58.368Z,3.88
2023-04-21T17:14:50.127Z,3.88
2023-04-21T17:19:41.713Z,4.13
2023-04-21T17:24:44.945Z,4.43
2023-04-21T17:29:43.891Z,4.03
2023-04-21T17:34:35.823Z,4.75
2023-04-21T17:39:27.676Z,4.50
2023-04-21T17:44:19.268Z,5.93
2023-04-21T17:49:10.936Z,4.35
2023-04-21T17:54:03.530Z,4.70
2023-04-21T17:58:55.194Z,5.55
2023-04-21T18:03:47.059Z,3.95
2023-04-21T18:08:38.811Z,4.93
2023-04-21T18:13:30.536Z,5.00
2023-04-21T18:18:22.094Z,4.15
2023-04-21T18:23:13.859Z,4.57
2023-04-21T18:28:05.537Z,4.75
2023-04-21T18:32:57.275Z,4.78
2023-04-21T18:37:48.911Z,6.10
2023-04-21T18:42:41.313Z,6.15
2023-04-21T18:47:32.908Z,6.63
2023-04-21T18:52:24.628Z,5.97
2023-04-21T18:57:16.257Z,6.70
2023-04-21T19:02:12.933Z,6.95
2023-04-21T19:07:08.333Z,7.15
2023-04-21T19:11:59.933Z,6.85
2023-04-21T19:16:53.011Z,6.63
2023-04-21T19:21:44.771Z,6.90
2023-04-21T19:26:36.416Z,7.90
2023-04-21T19:31:28.105Z,7.95
2023-04-21T19:36:19.796Z,7.72
2023-04-21T19:41:11.416Z,7.93
2023-04-21T19:46:03.085Z,7.53
2023-04-21T19:50:54.693Z,7.35
2023-04-21T19:55:46.833Z,7.68
2023-04-21T20:00:38.478Z,8.20
2023-04-21T20:05:30.093Z,7.63
2023-04-21T20:10:22.105Z,8.80
2023-04-21T20:15:13.788Z,9.88
2023-04-21T20:20:06.898Z,8.75
2023-04-21T20:24:58.491Z,10.43
2023-04-21T20:29:50.169Z,11.68
2023-04-21T20:34:42.214Z,11.57
2023-04-21T20:39:33.858Z,11.52
2023-04-21T20:44:31.370Z,12.00
2023-04-21T20:49:23.123Z,12.75
2023-04-21T20:54:14.728Z,13.43
2023-04-21T20:59:06.478Z,13.25
2023-04-21T21:04:01.209Z,12.80
2023-04-21T21:08:53.171Z,12.45
2023-04-21T21:13:45.509Z,13.15
2023-04-21T21:18:37.151Z,12.38
2023-04-21T21:23:29.036Z,14.02
2023-04-21T21:28:20.623Z,14.57
2023-04-21T21:33:12.279Z,14.27
2023-04-21T21:38:04.056Z,14.43
2023-04-21T21:42:55.635Z,14.75
2023-04-21T21:47:47.279Z,15.20
2023-04-21T21:52:38.921Z,14.82
2023-04-21T21:57:30.719Z,15.85
2023-04-21T22:02:22.439Z,15.18
2023-04-21T22:07:14.142Z,15.82
2023-04-21T22:12:07.048Z,16.10
2023-04-21T22:16:59.052Z,16.00
2023-04-21T22:21:50.652Z,16.48
2023-04-21T22:26:44.471Z,18.58
2023-04-21T22:31:37.198Z,17.58
2023-04-21T22:36:28.886Z,18.75
2023-04-21T22:41:21.190Z,18.02
2023-04-21T22:46:12.946Z,18.10
2023-04-21T22:51:06.338Z,20.45
2023-04-21T22:55:57.914Z,17.98
2023-04-21T23:00:49.758Z,18.15
2023-04-21T23:05:41.670Z,18.50
2023-04-21T23:10:33.672Z,18.58
2023-04-21T23:15:26.888Z,20.13
2023-04-21T23:20:18.632Z,21.33
2023-04-21T23:25:10.676Z,18.55
2023-04-21T23:30:02.764Z,19.00
2023-04-21T23:34:54.498Z,21.13
2023-04-21T23:39:46.068Z,19.80
2023-04-21T23:44:37.709Z,20.17
2023-04-21T23:49:29.421Z,19.13
2023-04-21T23:54:21.434Z,18.08
2023-04-21T23:59:13.128Z,19.42
